createdAt,value
2018-11-06T00:01:54.565Z,1.53
2018-11-06T00:04:28.467Z,2.17
2018-11-06T00:06:56.987Z,1.43
2018-11-06T00:09:25.507Z,1.57
2018-11-06T00:11:53.963Z,2.30
2018-11-06T00:14:22.432Z,2.37
2018-11-06T00:16:50.950Z,2.00
2018-11-06T00:19:19.438Z,1.70
2018-11-06T00:21:47.910Z,1.90
2018-11-06T00:24:16.443Z,1.63
2018-11-06T00:26:44.932Z,3.40
2018-11-06T00:29:13.359Z,2.60
2018-11-06T00:31:41.827Z,3.30
2018-11-06T00:34:10.357Z,1.70
2018-11-06T00:36:38.779Z,3.17
2018-11-06T00:39:08.053Z,2.63
2018-11-06T00:41:36.523Z,1.70
2018-11-06T00:44:05.192Z,2.00
2018-11-06T00:46:33.708Z,1.60
2018-11-06T00:49:02.181Z,1.80
2018-11-06T00:51:30.719Z,2.03
2018-11-06T00:53:59.202Z,1.53
2018-11-06T00:56:27.671Z,1.97
2018-11-06T00:58:56.151Z,3.03
2018-11-06T01:01:24.610Z,2.30
2018-11-06T01:03:58.287Z,1.57
2018-11-06T01:06:26.719Z,1.77
2018-11-06T01:08:55.196Z,2.37
2018-11-06T01:11:23.631Z,2.17
2018-11-06T01:13:52.214Z,3.73
2018-11-06T01:16:20.712Z,2.47
2018-11-06T01:18:49.223Z,1.83
2018-11-06T01:21:17.674Z,2.77
2018-11-06T01:23:46.142Z,4.33
2018-11-06T01:26:14.611Z,1.60
2018-11-06T01:28:43.113Z,1.80
2018-11-06T01:31:11.759Z,1.93
2018-11-06T01:33:40.287Z,1.63
2018-11-06T01:36:08.777Z,1.97
2018-11-06T01:38:37.309Z,2.77
2018-11-06T01:41:05.966Z,1.50
2018-11-06T01:43:34.455Z,1.60
2018-11-06T01:46:02.926Z,1.70
2018-11-06T01:48:31.407Z,1.50
2018-11-06T01:50:59.862Z,1.33
2018-11-06T01:53:28.290Z,1.43
2018-11-06T01:55:56.819Z,1.30
2018-11-06T01:58:25.247Z,1.30
2018-11-06T02:00:53.704Z,1.27
2018-11-06T02:03:22.276Z,1.50
2018-11-06T02:05:50.768Z,1.53
2018-11-06T02:08:19.214Z,1.40
2018-11-06T02:10:47.691Z,1.67
2018-11-06T02:13:16.170Z,1.40
2018-11-06T02:15:44.659Z,1.70
2018-11-06T02:18:13.053Z,3.57
2018-11-06T02:20:41.488Z,1.70
2018-11-06T02:23:09.883Z,1.83
2018-11-06T02:25:38.301Z,1.60
2018-11-06T02:28:06.731Z,1.40
2018-11-06T02:30:35.151Z,1.53
2018-11-06T02:33:03.558Z,2.73
2018-11-06T02:35:31.991Z,2.03
2018-11-06T02:38:00.389Z,3.90
2018-11-06T02:40:28.823Z,2.53
2018-11-06T02:42:57.272Z,1.63
2018-11-06T02:45:25.767Z,1.63
2018-11-06T02:47:54.175Z,1.90
2018-11-06T02:50:22.582Z,2.57
2018-11-06T02:52:51.010Z,3.10
2018-11-06T02:55:19.439Z,2.73
2018-11-06T02:57:47.904Z,2.33
2018-11-06T03:00:18.039Z,1.90
2018-11-06T03:02:47.459Z,1.50
2018-11-06T03:05:15.908Z,1.73
2018-11-06T03:07:44.341Z,1.80
2018-11-06T03:10:13.702Z,2.00
2018-11-06T03:12:43.243Z,1.73
2018-11-06T03:15:12.800Z,2.97
2018-11-06T03:17:41.304Z,1.83
2018-11-06T03:20:10.798Z,2.30
2018-11-06T03:22:39.347Z,3.57
2018-11-06T03:25:08.004Z,1.93
2018-11-06T03:27:36.507Z,2.13
2018-11-06T03:30:06.284Z,2.10
2018-11-06T03:32:34.729Z,1.90
2018-11-06T03:35:03.146Z,2.03
2018-11-06T03:37:31.614Z,1.97
2018-11-06T03:40:00.023Z,1.70
2018-11-06T03:42:28.425Z,1.70
2018-11-06T03:44:56.890Z,2.27
2018-11-06T03:47:25.311Z,1.47
2018-11-06T03:49:53.773Z,2.83
2018-11-06T03:52:22.190Z,2.53
2018-11-06T03:54:50.647Z,1.70
2018-11-06T03:57:19.095Z,1.87
2018-11-06T03:59:47.551Z,2.27
2018-11-06T04:02:15.962Z,1.70
2018-11-06T04:04:44.422Z,1.40
2018-11-06T04:07:12.835Z,1.73
2018-11-06T04:09:41.274Z,1.80
2018-11-06T04:12:09.712Z,1.70
2018-11-06T04:14:38.190Z,2.03
2018-11-06T04:17:06.612Z,1.60
2018-11-06T04:19:35.066Z,1.87
2018-11-06T04:22:03.501Z,2.43
2018-11-06T04:24:31.956Z,1.67
2018-11-06T04:27:00.362Z,2.17
2018-11-06T04:29:28.803Z,1.43
2018-11-06T04:31:57.230Z,1.97
2018-11-06T04:34:25.703Z,1.83
2018-11-06T04:36:54.110Z,1.90
2018-11-06T04:39:22.510Z,1.60
2018-11-06T04:41:50.962Z,2.03
2018-11-06T04:44:19.383Z,2.20
2018-11-06T04:46:47.842Z,1.60
2018-11-06T04:49:16.275Z,2.30
2018-11-06T04:51:44.706Z,1.80
2018-11-06T04:54:13.123Z,2.10
2018-11-06T04:56:41.608Z,1.70
2018-11-06T04:59:10.043Z,2.23
2018-11-06T05:01:38.486Z,3.33
2018-11-06T05:04:06.907Z,2.17
2018-11-06T05:06:35.374Z,1.70
2018-11-06T05:09:06.452Z,3.23
2018-11-06T05:11:34.944Z,4.33
2018-11-06T05:14:03.494Z,3.47
2018-11-06T05:16:31.944Z,3.13
2018-11-06T05:19:00.396Z,1.93
2018-11-06T05:21:28.895Z,2.23
2018-11-06T05:23:57.356Z,2.60
2018-11-06T05:26:39.224Z,1.93
2018-11-06T05:29:08.106Z,3.03
2018-11-06T05:31:37.553Z,2.43
2018-11-06T05:34:06.945Z,2.10
2018-11-06T05:36:39.120Z,3.03
2018-11-06T05:39:23.013Z,3.03
2018-11-06T05:41:51.639Z,1.80
2018-11-06T05:44:20.052Z,2.33
2018-11-06T05:46:48.505Z,2.73
2018-11-06T05:49:17.084Z,2.53
2018-11-06T05:51:45.495Z,3.07
2018-11-06T05:54:13.956Z,3.40
2018-11-06T05:56:42.451Z,3.27
2018-11-06T05:59:11.515Z,3.97
2018-11-06T06:01:39.922Z,3.20
2018-11-06T06:04:08.374Z,2.10
2018-11-06T06:06:36.919Z,5.77
2018-11-06T06:09:07.415Z,1.73
2018-11-06T06:11:35.886Z,4.20
2018-11-06T06:14:04.360Z,2.07
2018-11-06T06:16:32.818Z,2.40
2018-11-06T06:19:01.239Z,2.40
2018-11-06T06:21:29.666Z,2.97
2018-11-06T06:23:58.106Z,2.87
2018-11-06T06:26:26.511Z,3.73
2018-11-06T06:28:54.992Z,3.57
2018-11-06T06:31:23.429Z,4.17
2018-11-06T06:33:52.088Z,2.60
2018-11-06T06:36:22.195Z,2.23
2018-11-06T06:39:05.026Z,2.80
2018-11-06T06:41:46.962Z,3.03
2018-11-06T06:44:20.220Z,2.63
2018-11-06T06:46:52.872Z,2.33
2018-11-06T06:49:21.323Z,3.20
2018-11-06T06:51:49.726Z,1.47
2018-11-06T06:54:18.290Z,4.57
2018-11-06T06:56:46.687Z,10.33
2018-11-06T06:59:15.115Z,12.67
2018-11-06T07:01:43.552Z,16.47
2018-11-06T07:04:12.123Z,10.50
2018-11-06T07:06:40.572Z,6.60
2018-11-06T07:09:10.379Z,5.60
2018-11-06T07:11:38.948Z,5.30
2018-11-06T07:14:07.378Z,5.80
2018-11-06T07:16:35.817Z,4.50
2018-11-06T07:19:04.274Z,5.67
2018-11-06T07:21:32.727Z,4.37
2018-11-06T07:24:01.167Z,4.90
2018-11-06T07:26:29.617Z,4.83
2018-11-06T07:28:58.177Z,3.67
2018-11-06T07:31:33.730Z,3.73
2018-11-06T07:34:02.776Z,5.23
2018-11-06T07:36:31.813Z,4.73
2018-11-06T07:39:03.286Z,4.97
2018-11-06T07:41:32.439Z,5.53
2018-11-06T07:44:01.255Z,4.43
2018-11-06T07:46:30.394Z,4.87
2018-11-06T07:48:59.533Z,9.90
2018-11-06T07:51:31.365Z,5.73
2018-11-06T07:54:06.591Z,3.30
2018-11-06T12:42:02.254Z,3.20
2018-11-06T12:44:30.882Z,3.53
2018-11-06T12:46:59.356Z,4.00
2018-11-06T12:49:27.855Z,4.80
2018-11-06T12:51:56.353Z,2.67
2018-11-06T12:54:24.900Z,13.23
2018-11-06T12:56:53.460Z,3.73
2018-11-06T12:59:21.981Z,9.60
2018-11-06T13:01:50.497Z,5.93
2018-11-06T13:04:19.136Z,8.97
2018-11-06T13:06:47.647Z,14.10
2018-11-06T13:09:16.136Z,9.63
2018-11-06T13:11:44.619Z,9.23
2018-11-06T13:14:13.162Z,5.40
2018-11-06T13:16:42.829Z,5.50
2018-11-06T13:19:11.612Z,4.93
2018-11-06T13:21:40.866Z,5.43
2018-11-06T13:24:09.573Z,4.60
2018-11-06T13:26:38.269Z,4.97
2018-11-06T13:29:07.418Z,11.67
2018-11-06T13:31:37.289Z,7.07
2018-11-06T13:34:06.310Z,5.87
2018-11-06T13:36:35.088Z,1.93
2018-11-06T13:39:03.925Z,2.67
2018-11-06T13:41:33.918Z,1.87
2018-11-06T13:44:05.611Z,0.97
2018-11-06T13:46:41.868Z,1.33
2018-11-06T13:49:10.476Z,2.60
2018-11-06T13:51:39.178Z,1.30
2018-11-06T13:54:07.707Z,2.53
2018-11-06T13:56:36.319Z,2.37
2018-11-06T13:59:04.987Z,2.57
2018-11-06T14:01:33.520Z,3.37
2018-11-06T14:04:02.011Z,7.20
2018-11-06T14:06:37.105Z,4.37
2018-11-06T14:09:07.764Z,8.33
2018-11-06T14:11:36.782Z,2.73
2018-11-06T14:14:05.981Z,3.27
2018-11-06T14:16:34.706Z,2.00
2018-11-06T14:19:03.419Z,3.63
2018-11-06T14:21:31.945Z,2.67
2018-11-06T14:24:00.455Z,3.90
2018-11-06T14:26:28.958Z,2.53
2018-11-06T14:28:57.435Z,3.17
2018-11-06T14:31:26.219Z,4.37
2018-11-06T14:33:54.751Z,4.08
2018-11-06T14:36:23.183Z,2.52
2018-11-06T14:38:51.665Z,1.50
2018-11-06T14:41:20.094Z,2.98
2018-11-06T14:43:48.600Z,5.70
2018-11-06T14:46:17.041Z,5.87
2018-11-06T14:48:45.619Z,8.63
2018-11-06T14:51:14.003Z,5.75
2018-11-06T14:53:42.468Z,5.47
2018-11-06T14:56:10.915Z,4.12
2018-11-06T14:58:39.445Z,3.05
2018-11-06T15:01:07.912Z,2.40
2018-11-06T15:03:36.407Z,4.78
2018-11-06T15:06:05.445Z,4.25
2018-11-06T15:14:34.784Z,4.57
2018-11-06T15:17:17.271Z,4.90
2018-11-06T15:26:07.680Z,4.63
2018-11-06T15:28:50.364Z,5.53
2018-11-06T15:34:45.249Z,6.47
2018-11-06T15:37:29.622Z,5.23
2018-11-06T15:42:48.505Z,3.80
2018-11-06T15:48:23.530Z,7.77
2018-11-06T16:02:39.109Z,6.77
2018-11-06T16:05:10.581Z,7.67
2018-11-06T16:08:55.788Z,8.83
2018-11-06T16:11:40.585Z,5.17
2018-11-06T16:14:51.824Z,4.50
2018-11-06T16:29:31.252Z,7.47
2018-11-06T16:32:05.778Z,5.83
2018-11-06T16:34:39.020Z,6.33
2018-11-06T16:37:12.992Z,6.27
2018-11-06T16:39:45.240Z,5.23
2018-11-06T16:42:17.625Z,6.60
2018-11-06T16:50:59.175Z,7.30
2018-11-06T16:56:40.914Z,15.67
2018-11-06T16:59:12.669Z,14.43
2018-11-06T17:01:44.155Z,7.83
2018-11-06T17:04:27.925Z,7.43
2018-11-06T17:07:09.008Z,5.30
2018-11-06T17:09:55.196Z,7.40
2018-11-06T17:15:14.809Z,9.00
2018-11-06T17:20:26.480Z,4.83
2018-11-06T17:22:55.533Z,4.17
2018-11-06T17:25:37.331Z,6.17
2018-11-06T17:28:07.415Z,6.13
2018-11-06T17:30:37.096Z,4.07
2018-11-06T17:33:06.158Z,5.13
2018-11-06T17:35:43.168Z,5.40
2018-11-06T17:38:11.984Z,5.63
2018-11-06T17:40:50.679Z,4.00
2018-11-06T23:36:44.447Z,8.57
2018-11-06T23:39:12.855Z,11.00
2018-11-06T23:41:41.308Z,8.67
2018-11-06T23:44:09.716Z,9.47
2018-11-06T23:46:38.239Z,10.30
2018-11-06T23:49:06.683Z,10.07
2018-11-06T23:51:35.122Z,11.43
2018-11-06T23:54:03.595Z,10.40
2018-11-06T23:56:32.067Z,7.93
2018-11-06T23:59:00.518Z,9.83
